Terminal Aerodrome Forecast
Issued by NWS

Home | Current Version | Previous Version | Text Only | Print | Product List | Glossary Off
Versions: 1 2 3 4 5 6 7 8 9 10 11 12 13 14 15 16 17 18

000
FTUS43 KABR 200807 AAA
TAFPIR
TAF AMD
KPIR 200807Z 2008/2106 33008KT P6SM SCT035
     FM201000 28006KT 4SM BR OVC030
     FM201500 30011KT P6SM SCT040
     FM202300 35011KT P6SM FEW080=

USA.gov is the U.S. government's official web portal to all federal, state and local government web resources and services.